createdAt,value
2019-03-18T00:00:09.594Z,3.80
2019-03-18T00:02:39.106Z,7.07
2019-03-18T00:05:08.595Z,6.63
2019-03-18T00:07:38.018Z,7.50
2019-03-18T00:10:08.039Z,5.90
2019-03-18T00:12:37.780Z,7.50
2019-03-18T00:15:07.557Z,4.47
2019-03-18T00:17:37.665Z,5.63
2019-03-18T00:20:07.174Z,5.40
2019-03-18T00:22:36.679Z,8.83
2019-03-18T00:25:06.221Z,10.20
2019-03-18T00:27:35.715Z,8.10
2019-03-18T00:30:06.386Z,6.00
2019-03-18T00:32:36.233Z,7.53
2019-03-18T00:35:06.061Z,6.50
2019-03-18T00:37:35.531Z,6.87
2019-03-18T00:40:05.857Z,8.23
2019-03-18T00:42:35.331Z,6.00
2019-03-18T00:45:14.225Z,9.83
2019-03-18T00:47:36.281Z,7.63
2019-03-18T00:50:06.595Z,7.27
2019-03-18T00:52:36.195Z,9.43
2019-03-18T00:55:06.604Z,7.20
2019-03-18T00:57:36.000Z,11.40
2019-03-18T01:00:06.469Z,7.67
2019-03-18T01:02:36.034Z,11.97
2019-03-18T01:05:06.148Z,10.90
2019-03-18T01:07:35.632Z,9.20
2019-03-18T01:10:06.518Z,8.17
2019-03-18T01:12:36.030Z,8.53
2019-03-18T01:15:05.880Z,8.50
2019-03-18T01:17:35.730Z,11.30
2019-03-18T01:20:05.611Z,7.47
2019-03-18T01:22:35.372Z,9.53
2019-03-18T01:25:05.004Z,9.47
2019-03-18T01:27:34.498Z,10.27
2019-03-18T01:30:04.071Z,10.70
2019-03-18T01:32:33.502Z,10.10
2019-03-18T01:35:03.339Z,12.40
2019-03-18T01:37:32.890Z,11.47
2019-03-18T01:40:02.348Z,10.03
2019-03-18T01:42:31.821Z,11.40
2019-03-18T01:45:01.409Z,9.47
2019-03-18T01:47:30.847Z,8.20
2019-03-18T01:50:00.472Z,10.60
2019-03-18T01:52:29.910Z,9.23
2019-03-18T01:54:59.398Z,10.13
2019-03-18T01:57:28.850Z,9.50
2019-03-18T01:59:58.328Z,9.87
2019-03-18T02:02:27.877Z,9.53
2019-03-18T02:04:57.313Z,11.60
2019-03-18T02:07:26.733Z,10.23
2019-03-18T02:09:56.237Z,12.33
2019-03-18T02:12:25.692Z,11.87
2019-03-18T02:14:55.451Z,11.40
2019-03-18T02:17:24.962Z,13.00
2019-03-18T02:19:54.425Z,12.03
2019-03-18T02:22:23.901Z,14.83
2019-03-18T02:24:53.363Z,12.80
2019-03-18T02:27:22.750Z,13.37
2019-03-18T02:29:52.494Z,12.50
2019-03-18T02:32:21.884Z,12.50
2019-03-18T02:34:51.346Z,14.83
2019-03-18T02:37:20.838Z,13.27
2019-03-18T02:39:50.286Z,13.57
2019-03-18T02:42:19.745Z,14.70
2019-03-18T02:44:49.179Z,15.70
2019-03-18T02:47:18.960Z,14.50
2019-03-18T02:49:48.463Z,16.20
2019-03-18T02:52:17.976Z,14.90
2019-03-18T02:54:47.452Z,17.17
2019-03-18T02:57:16.958Z,18.70
2019-03-18T02:59:46.769Z,16.13
2019-03-18T03:02:16.308Z,16.33
2019-03-18T03:04:45.790Z,17.10
2019-03-18T03:07:15.297Z,15.93
2019-03-18T03:09:44.783Z,17.73
2019-03-18T03:12:14.359Z,16.60
2019-03-18T03:14:43.884Z,17.17
2019-03-18T03:17:13.337Z,15.70
2019-03-18T03:19:43.230Z,16.33
2019-03-18T03:22:12.715Z,15.27
2019-03-18T03:24:42.166Z,17.07
2019-03-18T03:27:11.614Z,15.37
2019-03-18T03:29:41.123Z,18.73
2019-03-18T03:32:10.603Z,18.07
2019-03-18T03:34:40.097Z,15.70
2019-03-18T03:37:09.833Z,18.60
2019-03-18T03:39:39.349Z,16.77
2019-03-18T03:42:08.930Z,16.97
2019-03-18T03:44:38.456Z,14.50
2019-03-18T03:47:07.942Z,15.47
2019-03-18T03:49:37.475Z,14.67
2019-03-18T03:52:06.964Z,14.43
2019-03-18T03:54:36.871Z,15.50
2019-03-18T03:57:06.374Z,14.97
2019-03-18T03:59:35.851Z,11.83
2019-03-18T04:02:05.432Z,12.40
2019-03-18T04:04:35.228Z,15.93
2019-03-18T04:07:04.929Z,16.30
2019-03-18T04:09:34.431Z,14.60
2019-03-18T04:12:04.303Z,17.30
2019-03-18T04:14:34.023Z,17.33
2019-03-18T04:17:03.509Z,14.80
2019-03-18T04:19:32.975Z,14.90
2019-03-18T04:22:02.473Z,16.00
2019-03-18T04:24:31.992Z,12.43
2019-03-18T04:27:01.436Z,18.00
2019-03-18T04:29:30.937Z,18.70
2019-03-18T04:32:00.434Z,12.47
2019-03-18T04:34:30.090Z,16.93
2019-03-18T04:36:59.945Z,19.03
2019-03-18T04:39:29.827Z,17.27
2019-03-18T04:41:59.334Z,16.40
2019-03-18T04:44:28.836Z,20.80
2019-03-18T04:46:58.299Z,13.90
2019-03-18T04:49:27.822Z,15.90
2019-03-18T04:51:57.692Z,16.33
2019-03-18T04:54:27.143Z,16.03
2019-03-18T04:56:56.661Z,16.37
2019-03-18T04:59:26.453Z,15.43
2019-03-18T05:01:56.257Z,17.63
2019-03-18T05:04:25.733Z,16.83
2019-03-18T05:06:55.617Z,19.10
2019-03-18T05:09:25.643Z,19.80
2019-03-18T05:11:56.037Z,19.87
2019-03-18T05:14:25.730Z,15.73
2019-03-18T05:16:55.188Z,22.40
2019-03-18T05:19:25.338Z,23.33
2019-03-18T05:21:55.042Z,22.07
2019-03-18T05:24:24.647Z,26.17
2019-03-18T05:26:54.114Z,21.10
2019-03-18T05:29:23.612Z,26.23
2019-03-18T05:31:53.082Z,21.43
2019-03-18T05:34:22.544Z,19.70
2019-03-18T05:36:52.282Z,17.40
2019-03-18T05:39:21.790Z,15.57
2019-03-18T05:41:51.649Z,21.93
2019-03-18T05:44:21.142Z,14.70
2019-03-18T05:46:50.751Z,21.03
2019-03-18T05:49:20.182Z,15.60
2019-03-18T05:51:49.807Z,14.00
2019-03-18T05:54:19.386Z,12.80
2019-03-18T05:56:49.244Z,11.10
2019-03-18T05:59:19.602Z,11.93
2019-03-18T06:01:49.402Z,17.73
2019-03-18T06:04:19.011Z,11.70
2019-03-18T06:06:48.824Z,19.07
2019-03-18T06:09:18.240Z,12.50
2019-03-18T06:11:47.742Z,14.13
2019-03-18T06:14:17.355Z,12.50
2019-03-18T06:16:46.823Z,15.97
2019-03-18T06:19:17.000Z,11.80
2019-03-18T06:21:46.509Z,13.83
2019-03-18T06:24:16.171Z,13.17
2019-03-18T06:26:45.700Z,13.30
2019-03-18T06:29:15.797Z,13.30
2019-03-18T06:31:46.876Z,18.80
2019-03-18T06:34:16.346Z,19.40
2019-03-18T06:36:45.844Z,13.50
2019-03-18T06:39:15.919Z,15.40
2019-03-18T06:41:45.385Z,16.50
2019-03-18T06:44:15.298Z,14.07
2019-03-18T06:46:45.052Z,8.57
2019-03-18T06:49:14.559Z,13.63
2019-03-18T06:51:43.970Z,20.47
2019-03-18T06:54:13.877Z,14.00
2019-03-18T06:56:43.531Z,10.70
2019-03-18T06:59:13.309Z,16.30
2019-03-18T07:01:43.610Z,11.10
2019-03-18T07:04:13.049Z,12.17
2019-03-18T07:06:42.529Z,13.13
2019-03-18T07:09:12.004Z,11.33
2019-03-18T07:11:41.505Z,24.57
2019-03-18T07:14:11.091Z,13.07
2019-03-18T07:16:40.517Z,15.07
2019-03-18T07:19:10.282Z,12.57
2019-03-18T07:21:40.002Z,9.20
2019-03-18T07:24:09.539Z,9.23
2019-03-18T07:26:39.118Z,10.10
2019-03-18T07:29:08.549Z,9.50
2019-03-18T07:31:37.949Z,11.93
2019-03-18T07:34:07.602Z,17.70
2019-03-18T07:36:37.041Z,11.57
2019-03-18T07:39:07.876Z,12.83
2019-03-18T07:41:37.383Z,12.17
2019-03-18T07:44:07.100Z,13.23
2019-03-18T07:46:36.663Z,12.13
2019-03-18T07:49:06.118Z,15.93
2019-03-18T07:51:35.615Z,15.00
2019-03-18T07:54:05.100Z,13.07
2019-03-18T07:56:35.133Z,16.53
2019-03-18T07:59:05.306Z,12.13
2019-03-18T08:01:37.616Z,11.97
2019-03-18T08:04:07.245Z,16.63
2019-03-18T08:06:36.785Z,15.10
2019-03-18T08:09:08.921Z,9.63
2019-03-18T08:11:39.015Z,10.53
2019-03-18T08:14:08.471Z,10.47
2019-03-18T08:16:37.950Z,12.70
2019-03-18T08:19:07.766Z,14.93
2019-03-18T08:21:37.693Z,17.90
2019-03-18T08:24:08.151Z,11.23
2019-03-18T08:26:37.662Z,11.23
2019-03-18T08:29:07.206Z,12.90
2019-03-18T08:31:36.725Z,22.27
2019-03-18T08:34:06.162Z,14.93
2019-03-18T08:36:35.967Z,12.07
2019-03-18T08:39:07.313Z,17.03
2019-03-18T08:41:37.186Z,14.63
2019-03-18T08:44:06.688Z,20.40
2019-03-18T08:46:36.498Z,17.87
2019-03-18T08:49:05.974Z,24.70
2019-03-18T08:51:36.913Z,17.83
2019-03-18T08:54:06.371Z,9.70
2019-03-18T08:56:35.911Z,12.77
2019-03-18T08:59:05.353Z,18.20
2019-03-18T09:01:34.849Z,17.17
2019-03-18T09:04:04.355Z,13.60
2019-03-18T09:06:33.938Z,19.23
2019-03-18T09:09:04.126Z,17.67
2019-03-18T09:11:33.558Z,12.10
2019-03-18T09:14:02.992Z,9.67
2019-03-18T09:16:32.484Z,16.87
2019-03-18T09:19:08.470Z,10.97
2019-03-18T09:21:33.819Z,9.43
2019-03-18T09:24:03.270Z,11.50
2019-03-18T09:26:32.698Z,11.00
2019-03-18T09:29:02.570Z,15.17
2019-03-18T09:31:32.951Z,13.50
2019-03-18T09:34:02.410Z,10.43
2019-03-18T09:36:31.908Z,11.47
2019-03-18T09:39:01.405Z,12.63
2019-03-18T09:41:30.917Z,9.43
2019-03-18T09:44:00.739Z,14.60
2019-03-18T09:46:30.142Z,8.20
2019-03-18T09:48:59.898Z,12.40
2019-03-18T09:51:29.354Z,11.77
2019-03-18T09:53:58.890Z,15.17
2019-03-18T09:56:28.636Z,13.93
2019-03-18T09:58:58.101Z,14.73
2019-03-18T10:01:27.563Z,8.43
2019-03-18T10:03:57.351Z,11.53
2019-03-18T10:06:27.059Z,13.03
2019-03-18T10:08:56.947Z,9.40
2019-03-18T10:11:26.394Z,11.13
2019-03-18T10:13:55.941Z,14.77
2019-03-18T10:16:25.380Z,9.97
2019-03-18T10:18:55.055Z,10.10
2019-03-18T10:21:24.596Z,11.30
2019-03-18T10:23:54.045Z,11.90
2019-03-18T10:26:23.534Z,9.90
2019-03-18T10:28:52.924Z,12.80
2019-03-18T10:31:22.389Z,11.10
2019-03-18T10:33:51.861Z,12.70
2019-03-18T10:36:21.661Z,9.07
2019-03-18T10:38:52.795Z,6.70
2019-03-18T10:41:22.248Z,3.60
2019-03-18T10:43:51.670Z,9.23
2019-03-18T10:46:21.186Z,6.23
2019-03-18T10:48:50.649Z,8.50
2019-03-18T10:51:20.136Z,2.80
2019-03-18T10:53:49.959Z,7.80
2019-03-18T10:56:19.718Z,8.50
2019-03-18T10:58:49.521Z,4.93
2019-03-18T11:01:19.081Z,6.90
2019-03-18T11:03:48.554Z,6.87
2019-03-18T11:06:18.051Z,9.63
2019-03-18T11:08:48.207Z,9.73
2019-03-18T11:11:17.924Z,13.63
2019-03-18T11:13:47.409Z,7.40
2019-03-18T11:16:16.852Z,10.03
2019-03-18T11:18:46.316Z,11.70
2019-03-18T11:21:15.831Z,15.23
2019-03-18T11:23:45.282Z,10.03
2019-03-18T11:26:14.731Z,9.70
2019-03-18T11:28:44.458Z,11.60
2019-03-18T11:31:14.327Z,9.37
2019-03-18T11:33:43.820Z,11.80
2019-03-18T11:36:13.678Z,11.10
2019-03-18T11:38:43.187Z,8.43
2019-03-18T11:41:12.914Z,12.17
2019-03-18T11:43:42.709Z,15.03
2019-03-18T11:46:12.147Z,10.17
2019-03-18T11:48:41.592Z,8.23
2019-03-18T11:51:11.423Z,12.93
2019-03-18T11:53:40.890Z,9.70
2019-03-18T11:56:10.404Z,9.50
2019-03-18T11:58:40.062Z,11.77
2019-03-18T12:01:09.546Z,8.73
2019-03-18T12:03:39.462Z,9.37
2019-03-18T12:06:09.721Z,11.53
2019-03-18T12:08:39.498Z,10.53
2019-03-18T12:11:08.930Z,9.77
2019-03-18T12:13:38.313Z,13.30
2019-03-18T12:16:07.784Z,12.30
2019-03-18T12:18:37.311Z,9.37
2019-03-18T12:21:07.108Z,12.00
2019-03-18T12:23:37.131Z,12.83
2019-03-18T12:26:06.564Z,13.93
2019-03-18T12:28:36.004Z,11.87
2019-03-18T12:31:05.548Z,8.50
2019-03-18T12:33:34.985Z,9.30
2019-03-18T12:36:04.474Z,12.60
2019-03-18T12:38:34.023Z,10.13
2019-03-18T12:41:03.873Z,6.10
2019-03-18T12:43:33.340Z,10.97
2019-03-18T12:46:02.814Z,10.20
2019-03-18T12:48:32.301Z,12.20
2019-03-18T12:51:01.734Z,8.20
2019-03-18T12:53:31.227Z,7.17
2019-03-18T12:56:00.710Z,6.40
2019-03-18T12:58:30.572Z,7.07
2019-03-18T13:01:11.897Z,8.07
2019-03-18T13:03:31.563Z,5.90
2019-03-18T13:06:01.482Z,9.43
2019-03-18T13:08:31.068Z,8.30
2019-03-18T13:11:00.562Z,10.07
2019-03-18T13:13:30.070Z,12.50
2019-03-18T13:15:59.478Z,14.03
2019-03-18T13:18:29.279Z,11.70
2019-03-18T13:21:07.782Z,8.27
2019-03-18T13:23:30.130Z,10.00
2019-03-18T13:25:59.526Z,7.77
2019-03-18T13:28:28.955Z,11.67
2019-03-18T13:30:58.424Z,8.50
2019-03-18T13:33:28.034Z,7.53
2019-03-18T13:35:57.450Z,7.90
2019-03-18T13:38:26.920Z,9.80
2019-03-18T13:40:56.858Z,16.83
2019-03-18T13:43:28.102Z,9.03
2019-03-18T13:45:57.443Z,10.67
2019-03-18T13:48:27.048Z,6.77
2019-03-18T13:50:56.542Z,7.43
2019-03-18T13:53:26.423Z,7.40
2019-03-18T13:55:55.886Z,6.17
2019-03-18T13:58:25.364Z,4.30
2019-03-18T14:00:54.899Z,8.77
2019-03-18T14:03:24.399Z,5.40
2019-03-18T14:05:53.911Z,7.23
2019-03-18T14:08:23.361Z,9.73
2019-03-18T14:10:52.816Z,4.57
2019-03-18T14:13:22.301Z,5.10
2019-03-18T14:15:51.744Z,5.13
2019-03-18T14:18:21.894Z,6.90
2019-03-18T14:20:51.526Z,3.70
2019-03-18T14:23:21.393Z,10.83
2019-03-18T14:25:51.239Z,5.60
2019-03-18T14:28:20.717Z,4.10
2019-03-18T14:30:50.446Z,3.47
2019-03-18T14:33:20.006Z,3.67
2019-03-18T14:35:49.513Z,5.87
2019-03-18T14:38:19.029Z,12.90
2019-03-18T14:40:48.518Z,11.63
2019-03-18T14:43:17.996Z,5.20
2019-03-18T14:45:47.454Z,5.93
2019-03-18T14:48:16.886Z,7.80
2019-03-18T14:50:46.517Z,7.10
2019-03-18T14:53:15.932Z,9.70
2019-03-18T14:55:45.438Z,8.13
2019-03-18T14:58:14.925Z,5.53
2019-03-18T15:00:44.702Z,7.67
2019-03-18T15:03:14.915Z,5.60
2019-03-18T15:05:44.396Z,7.63
2019-03-18T15:08:13.896Z,8.30
2019-03-18T15:10:43.329Z,5.20
2019-03-18T15:13:13.182Z,7.00
2019-03-18T15:15:42.582Z,15.47
2019-03-18T15:18:12.001Z,10.47
2019-03-18T15:20:41.464Z,6.70
2019-03-18T15:23:11.030Z,9.23
2019-03-18T15:25:40.783Z,6.97
2019-03-18T15:28:10.655Z,8.90
2019-03-18T15:30:40.116Z,8.20
2019-03-18T15:33:09.596Z,11.37
2019-03-18T15:35:39.078Z,10.17
2019-03-18T15:38:08.620Z,6.63
2019-03-18T15:40:38.453Z,13.13
2019-03-18T15:43:07.948Z,5.23
2019-03-18T15:45:37.479Z,8.60
2019-03-18T15:48:06.889Z,7.90
2019-03-18T15:50:36.820Z,3.10
2019-03-18T15:53:06.603Z,3.37
2019-03-18T15:55:36.423Z,4.97
2019-03-18T15:58:05.908Z,7.83
2019-03-18T16:00:35.495Z,4.63
2019-03-18T16:03:05.397Z,4.53
2019-03-18T16:05:35.966Z,6.07
2019-03-18T16:08:05.608Z,9.23
2019-03-18T16:10:35.092Z,7.70
2019-03-18T16:13:04.566Z,6.00
2019-03-18T16:15:34.684Z,5.67
2019-03-18T16:18:04.168Z,8.80
2019-03-18T16:20:34.111Z,7.07
2019-03-18T16:23:03.602Z,15.00
2019-03-18T16:25:33.104Z,8.30
2019-03-18T16:28:02.600Z,5.80
2019-03-18T16:30:32.609Z,8.27
2019-03-18T16:33:02.018Z,4.43
2019-03-18T16:35:31.786Z,6.13
2019-03-18T16:38:01.306Z,10.90
2019-03-18T16:40:31.010Z,6.30
2019-03-18T16:43:00.882Z,6.90
2019-03-18T16:45:30.307Z,9.90
2019-03-18T16:48:00.054Z,7.83
2019-03-18T16:50:29.920Z,10.80
2019-03-18T16:52:59.474Z,11.50
2019-03-18T16:55:29.060Z,10.27
2019-03-18T16:58:17.581Z,3.30
2019-03-18T17:00:47.386Z,6.73
2019-03-18T17:03:16.794Z,9.40
2019-03-18T17:05:46.611Z,6.80
2019-03-18T17:08:16.429Z,8.37
2019-03-18T17:10:46.234Z,9.23
2019-03-18T17:13:16.027Z,9.90
2019-03-18T17:15:45.450Z,7.47
2019-03-18T17:18:17.875Z,9.90
2019-03-18T17:20:46.674Z,8.63
2019-03-18T17:23:16.106Z,11.60
2019-03-18T17:25:45.558Z,13.73
2019-03-18T17:28:15.015Z,9.87
2019-03-18T17:30:45.400Z,11.93
2019-03-18T17:33:14.900Z,14.30
2019-03-18T17:35:44.362Z,12.03
2019-03-18T17:38:13.883Z,11.20
2019-03-18T17:40:43.690Z,7.93
2019-03-18T17:43:13.596Z,6.73
2019-03-18T17:45:43.064Z,10.97
2019-03-18T17:48:12.454Z,11.07
2019-03-18T17:50:43.195Z,15.50
2019-03-18T17:53:12.796Z,11.43
2019-03-18T17:55:43.156Z,7.60
2019-03-18T17:58:13.393Z,16.60
2019-03-18T18:00:45.754Z,16.57
2019-03-18T18:03:15.635Z,8.63
2019-03-18T18:05:45.158Z,10.00
2019-03-18T18:08:18.093Z,14.30
2019-03-18T18:10:47.029Z,9.20
2019-03-18T18:13:16.453Z,14.27
2019-03-18T18:15:45.906Z,17.30
2019-03-18T18:18:15.390Z,7.20
2019-03-18T18:20:44.860Z,8.73
2019-03-18T18:23:15.207Z,8.13
2019-03-18T18:25:44.842Z,7.37
2019-03-18T18:28:14.351Z,8.80
2019-03-18T18:30:43.748Z,16.80
2019-03-18T18:33:13.217Z,6.33
2019-03-18T18:35:42.700Z,7.70
2019-03-18T18:38:12.125Z,11.13
2019-03-18T18:40:41.638Z,6.10
2019-03-18T18:43:11.363Z,9.10
2019-03-18T18:45:40.858Z,8.27
2019-03-18T18:48:10.381Z,6.50
2019-03-18T18:50:39.875Z,9.57
2019-03-18T18:53:09.345Z,13.03
2019-03-18T18:55:38.823Z,9.53
2019-03-18T18:58:08.266Z,8.73
2019-03-18T19:00:37.728Z,6.30
2019-03-18T19:03:07.463Z,13.87
2019-03-18T19:05:37.143Z,15.73
2019-03-18T19:08:06.634Z,8.97
2019-03-18T19:10:36.481Z,6.37
2019-03-18T19:13:05.936Z,6.30
2019-03-18T19:15:35.880Z,7.47
2019-03-18T19:18:05.344Z,9.03
2019-03-18T19:20:34.827Z,11.07
2019-03-18T19:23:04.229Z,11.10
2019-03-18T19:25:33.693Z,6.17
2019-03-18T19:28:03.147Z,8.40
2019-03-18T19:30:32.634Z,7.17
2019-03-18T19:33:02.088Z,8.67
2019-03-18T19:35:31.957Z,14.50
2019-03-18T19:38:01.386Z,7.63
2019-03-18T19:40:30.834Z,9.77
2019-03-18T19:43:00.329Z,11.23
2019-03-18T19:45:29.834Z,10.53
2019-03-18T19:47:59.307Z,8.67
2019-03-18T19:50:28.781Z,10.50
2019-03-18T19:52:58.252Z,7.10
2019-03-18T19:55:27.682Z,12.80
2019-03-18T19:57:57.099Z,8.23
2019-03-18T20:00:26.591Z,12.60
2019-03-18T20:02:56.001Z,14.53
2019-03-18T20:05:25.485Z,8.43
2019-03-18T20:07:55.378Z,7.90
2019-03-18T20:10:24.862Z,11.30
2019-03-18T20:12:54.415Z,10.00
2019-03-18T20:15:23.922Z,10.27
2019-03-18T20:17:54.183Z,8.27
2019-03-18T20:20:23.618Z,12.83
2019-03-18T20:22:53.144Z,12.43
2019-03-18T20:25:22.943Z,10.27
2019-03-18T20:27:52.798Z,8.73
2019-03-18T20:30:22.326Z,8.87
2019-03-18T20:32:51.766Z,8.70
2019-03-18T20:35:21.231Z,10.20
2019-03-18T20:37:52.047Z,12.30
2019-03-18T20:40:22.524Z,12.27
2019-03-18T20:42:52.161Z,11.50
2019-03-18T20:45:21.664Z,12.30
2019-03-18T20:47:51.832Z,15.00
2019-03-18T20:50:21.607Z,15.40
2019-03-18T20:52:51.628Z,14.30
2019-03-18T20:55:21.430Z,7.83
2019-03-18T20:57:51.547Z,13.03
2019-03-18T21:00:21.979Z,13.53
2019-03-18T21:02:51.512Z,17.00
2019-03-18T21:05:20.987Z,14.90
2019-03-18T21:07:51.069Z,11.90
2019-03-18T21:10:20.575Z,9.23
2019-03-18T21:12:50.425Z,12.80
2019-03-18T21:15:19.968Z,6.23
2019-03-18T21:17:49.384Z,9.60
2019-03-18T21:20:18.950Z,7.90
2019-03-18T21:22:48.646Z,9.70
2019-03-18T21:25:18.646Z,11.40
2019-03-18T21:27:48.931Z,12.90
2019-03-18T21:30:18.441Z,12.03
2019-03-18T21:32:48.013Z,7.83
2019-03-18T21:35:17.578Z,10.43
2019-03-18T21:37:47.061Z,9.33
2019-03-18T21:40:16.593Z,11.50
2019-03-18T21:42:46.118Z,14.53
2019-03-18T21:45:16.716Z,14.93
2019-03-18T21:47:46.158Z,17.43
2019-03-18T21:50:16.417Z,14.63
2019-03-18T21:52:45.875Z,14.33
2019-03-18T21:55:15.469Z,12.07
2019-03-18T21:57:45.525Z,16.33
2019-03-18T22:00:16.153Z,9.13
2019-03-18T22:02:46.128Z,10.07
2019-03-18T22:05:15.940Z,11.93
2019-03-18T22:07:45.687Z,6.87
2019-03-18T22:10:15.181Z,7.23
2019-03-18T22:12:45.073Z,11.37
2019-03-18T22:15:14.616Z,16.50
2019-03-18T22:17:44.398Z,13.93
2019-03-18T22:20:14.469Z,12.20
2019-03-18T22:22:44.022Z,6.00
2019-03-18T22:25:13.959Z,13.10
2019-03-18T22:27:43.603Z,11.20
2019-03-18T22:30:13.327Z,13.73
2019-03-18T22:32:42.810Z,16.07
2019-03-18T22:35:12.577Z,10.13
2019-03-18T22:37:42.352Z,13.30
2019-03-18T22:40:11.987Z,13.33
2019-03-18T22:42:41.494Z,14.70
2019-03-18T22:45:11.238Z,18.80
2019-03-18T22:47:40.738Z,12.37
2019-03-18T22:50:10.885Z,12.10
2019-03-18T22:52:40.642Z,10.00
2019-03-18T22:55:10.277Z,14.37
2019-03-18T22:57:40.267Z,18.03
2019-03-18T23:00:21.141Z,11.17
2019-03-18T23:02:50.994Z,11.77
2019-03-18T23:05:20.778Z,13.70
2019-03-18T23:07:50.290Z,17.53
2019-03-18T23:10:19.763Z,12.10
2019-03-18T23:12:49.213Z,12.40
2019-03-18T23:15:18.654Z,12.20
2019-03-18T23:17:48.460Z,11.93
2019-03-18T23:20:17.994Z,7.60
2019-03-18T23:22:47.428Z,15.20
2019-03-18T23:25:17.786Z,10.53
2019-03-18T23:27:47.338Z,12.40
2019-03-18T23:30:17.623Z,13.17
2019-03-18T23:32:47.090Z,7.87
2019-03-18T23:35:16.484Z,18.83
2019-03-18T23:37:46.028Z,15.60
2019-03-18T23:40:15.801Z,9.10
2019-03-18T23:42:45.251Z,13.47
2019-03-18T23:45:14.857Z,13.00
2019-03-18T23:47:44.312Z,18.97
2019-03-18T23:50:13.990Z,12.17
2019-03-18T23:52:43.861Z,11.10
2019-03-18T23:55:19.658Z,11.23
2019-03-18T23:57:44.572Z,13.43
